Time;durP1;ratioP1;P1;durP2;ratioP2;P2;SDS_P1;SDS_P2;PMS_P1;PMS_P2;Temp;Humidity;BMP_temperature;BMP_pressure;BME280_temperature;BME280_humidity;BME280_pressure;Samples;Min_cycle;Max_cycle;Signal;HPM_P1;HPM_P2
2023/04/09 00:02:00;;;;;;;;;;;;;;;;;;5029045;28;19936;-88
2023/04/09 00:04:27;;;;;;;;;;;;;;;;;;5026961;28;19925;-87
2023/04/09 00:06:55;;;;;;;;;;;;;;;;;;5027904;28;19940;-87
2023/04/09 00:09:22;;;;;;;;;;;;;;;;;;5025420;28;19934;-84
2023/04/09 00:11:50;;;;;;;;;;;;;;;;;;5028271;28;19925;-87
2023/04/09 00:14:17;;;;;;;;;;;;;;;;;;5028246;28;19925;-87
2023/04/09 00:16:45;;;;;;;;;;;;;;;;;;5028431;28;20095;-86
2023/04/09 00:19:12;;;;;;;;;;;;;;;;;;5027493;28;19929;-87
2023/04/09 00:21:45;;;;;;;;;;;;;;;;;;5027135;28;19929;-87
2023/04/09 00:24:12;;;;;;;;;;;;;;;;;;5028621;28;19940;-86
2023/04/09 00:26:40;;;;;;;;;;;;;;;;;;5027886;28;20297;-87
2023/04/09 00:29:07;;;;;;;;;;;;;;;;;;5039891;28;19944;-85
2023/04/09 00:31:35;;;;;;;;;;;;;;;;;;5045684;28;19929;-86
2023/04/09 00:34:02;;;;;;;;;;;;;;;;;;5031420;28;19932;-87
2023/04/09 00:36:30;;;;;;;;;;;;;;;;;;5028307;28;19932;-87
2023/04/09 00:39:03;;;;;;;;;;;;;;;;;;5032351;28;19934;-87
2023/04/09 00:41:30;;;;;;;;;;;;;;;;;;5028435;28;19932;-86
2023/04/09 00:43:58;;;;;;;;;;;;;;;;;;5032226;28;19933;-87
2023/04/09 00:46:25;;;;;;;;;;;;;;;;;;5047242;28;19936;-87
2023/04/09 00:48:53;;;;;;;;;;;;;;;;;;5033025;28;19925;-87
2023/04/09 00:51:20;;;;;;;;;;;;;;;;;;5031145;28;20576;-87
2023/04/09 00:53:48;;;;;;;;;;;;;;;;;;5032355;28;19960;-87
2023/04/09 00:56:20;;;;;;;;;;;;;;;;;;5027188;28;19925;-87
2023/04/09 00:58:53;;;;;;;;;;;;;;;;;;5030613;28;19926;-85
2023/04/09 01:01:20;;;;;;;;;;;;;;;;;;5031985;28;19925;-87
2023/04/09 01:03:48;;;;;;;;;;;;;;;;;;5032358;28;20382;-88
2023/04/09 01:06:15;;;;;;;;;;;;;;;;;;5031195;28;20444;-85
2023/04/09 01:08:47;;;;;;;;;;;;;;;;;;5023521;28;20298;-87
2023/04/09 01:11:20;;;;;;;;;;;;;;;;;;5027629;28;19925;-87
2023/04/09 01:13:51;;;;;;;;;;;;;;;;;;5029724;28;19936;-85
2023/04/09 01:16:19;;;;;;;;;;;;;;;;;;5032735;28;19933;-87
2023/04/09 01:18:47;;;;;;;;;;;;;;;;;;5031172;28;19933;-88
2023/04/09 01:21:14;;;;;;;;;;;;;;;;;;5030447;28;19983;-88
2023/04/09 01:23:42;;;;;;;;;;;;;;;;;;5032810;28;20310;-86
2023/04/09 01:26:10;;;;;;;;;;;;;;;;;;5032136;28;19933;-88
2023/04/09 01:28:49;;;;;;;;;;;;;;;;;;5022542;28;19925;-88
2023/04/09 01:31:22;;;;;;;;;;;;;;;;;;5046579;28;20390;-85
2023/04/09 01:33:49;;;;;;;;;;;;;;;;;;5032169;28;20362;-88
2023/04/09 01:36:17;;;;;;;;;;;;;;;;;;5028155;28;20749;-87
2023/04/09 01:38:50;;;;;;;;;;;;;;;;;;5022026;28;19925;-88
2023/04/09 01:41:17;;;;;;;;;;;;;;;;;;5028197;28;19936;-88
2023/04/09 01:43:45;;;;;;;;;;;;;;;;;;5030222;28;19925;-87
2023/04/09 01:46:17;;;;;;;;;;;;;;;;;;5027456;28;19933;-86
2023/04/09 01:48:50;;;;;;;;;;;;;;;;;;5036629;28;19932;-87
2023/04/09 01:51:17;;;;;;;;;;;;;;;;;;5028992;28;19933;-86
2023/04/09 01:53:45;;;;;;;;;;;;;;;;;;5031148;28;19929;-88
2023/04/09 01:56:17;;;;;;;;;;;;;;;;;;5026515;28;20321;-85
2023/04/09 01:58:45;;;;;;;;;;;;;;;;;;5031457;28;19929;-88
2023/04/09 02:01:17;;;;;;;;;;;;;;;;;;5028470;28;19933;-87
2023/04/09 02:03:45;;;;;;;;;;;;;;;;;;5028233;28;19925;-88
2023/04/09 02:06:12;;;;;;;;;;;;;;;;;;5031070;28;19936;-84
2023/04/09 02:08:40;;;;;;;;;;;;;;;;;;5029870;28;19932;-88
2023/04/09 02:11:12;;;;;;;;;;;;;;;;;;5028740;28;20384;-86
2023/04/09 02:13:45;;;;;;;;;;;;;;;;;;5030559;28;20269;-88
2023/04/09 02:16:12;;;;;;;;;;;;;;;;;;5030483;28;19949;-86
2023/04/09 02:18:40;;;;;;;;;;;;;;;;;;5046419;28;19929;-88
2023/04/09 02:21:12;;;;;;;;;;;;;;;;;;5029344;28;20408;-87
2023/04/09 02:23:40;;;;;;;;;;;;;;;;;;5028746;28;19930;-88
2023/04/09 02:26:07;;;;;;;;;;;;;;;;;;5030025;28;19933;-87
2023/04/09 02:28:35;;;;;;;;;;;;;;;;;;5028873;28;20781;-87
2023/04/09 02:31:03;;;;;;;;;;;;;;;;;;5030968;28;19925;-86
2023/04/09 02:33:35;;;;;;;;;;;;;;;;;;5028011;28;19925;-86
2023/04/09 02:36:03;;;;;;;;;;;;;;;;;;5029291;28;19929;-88
2023/04/09 02:38:35;;;;;;;;;;;;;;;;;;5028968;28;19925;-88
2023/04/09 02:41:03;;;;;;;;;;;;;;;;;;5030399;28;19928;-87
2023/04/09 02:43:30;;;;;;;;;;;;;;;;;;5042597;28;19932;-87
2023/04/09 02:45:58;;;;;;;;;;;;;;;;;;5039381;28;19939;-86
2023/04/09 02:48:25;;;;;;;;;;;;;;;;;;5030390;28;19925;-88
2023/04/09 02:50:53;;;;;;;;;;;;;;;;;;5029198;28;20043;-88
2023/04/09 02:53:26;;;;;;;;;;;;;;;;;;5028599;28;19936;-88
2023/04/09 02:55:53;;;;;;;;;;;;;;;;;;5028388;28;19936;-88
2023/04/09 02:58:21;;;;;;;;;;;;;;;;;;5027931;28;19929;-88
2023/04/09 03:00:48;;;;;;;;;;;;;;;;;;5030608;28;19929;-86
2023/04/09 03:03:16;;;;;;;;;;;;;;;;;;5045396;28;20816;-85
2023/04/09 03:05:48;;;;;;;;;;;;;;;;;;5029744;28;19940;-88
2023/04/09 03:08:16;;;;;;;;;;;;;;;;;;5030117;28;19925;-82
2023/04/09 03:10:43;;;;;;;;;;;;;;;;;;5045644;28;19932;-87
2023/04/09 03:13:11;;;;;;;;;;;;;;;;;;5028483;28;19933;-87
2023/04/09 03:15:43;;;;;;;;;;;;;;;;;;5030167;28;19929;-87
2023/04/09 03:18:11;;;;;;;;;;;;;;;;;;5036185;28;19932;-86
2023/04/09 03:20:39;;;;;;;;;;;;;;;;;;5027353;28;19929;-87
2023/04/09 03:23:09;;;;;;;;;;;;;;;;;;5028700;28;19933;-89
2023/04/09 03:25:41;;;;;;;;;;;;;;;;;;5028745;28;20405;-88
2023/04/09 03:28:14;;;;;;;;;;;;;;;;;;5029470;28;19929;-88
2023/04/09 03:30:45;;;;;;;;;;;;;;;;;;5028122;28;19929;-88
2023/04/09 03:33:18;;;;;;;;;;;;;;;;;;5033756;28;19947;-87
2023/04/09 03:35:50;;;;;;;;;;;;;;;;;;5028033;28;19936;-87
2023/04/09 03:38:24;;;;;;;;;;;;;;;;;;5029015;28;19932;-87
2023/04/09 03:40:52;;;;;;;;;;;;;;;;;;5028765;28;19925;-88
2023/04/09 03:43:25;;;;;;;;;;;;;;;;;;5028081;28;20247;-87
2023/04/09 03:45:53;;;;;;;;;;;;;;;;;;5018052;28;19949;-84
2023/04/09 03:48:23;;;;;;;;;;;;;;;;;;5028728;28;19945;-87
2023/04/09 03:50:52;;;;;;;;;;;;;;;;;;5025139;28;20293;-86
2023/04/09 03:53:27;;;;;;;;;;;;;;;;;;5025976;28;19929;-87
2023/04/09 03:56:01;;;;;;;;;;;;;;;;;;5039021;28;20285;-88
2023/04/09 03:58:29;;;;;;;;;;;;;;;;;;5027696;28;20381;-88
2023/04/09 04:01:02;;;;;;;;;;;;;;;;;;5026669;28;19925;-88
2023/04/09 04:03:43;;;;;;;;;;;;;;;;;;5027857;28;19952;-87
2023/04/09 04:06:16;;;;;;;;;;;;;;;;;;5033109;28;19929;-87
2023/04/09 04:08:52;;;;;;;;;;;;;;;;;;5040848;28;19936;-88
2023/04/09 04:11:23;;;;;;;;;;;;;;;;;;5037335;28;20389;-88
2023/04/09 04:13:54;;;;;;;;;;;;;;;;;;5030657;28;19929;-88
2023/04/09 04:16:22;;;;;;;;;;;;;;;;;;5032280;28;19937;-87
2023/04/09 04:18:51;;;;;;;;;;;;;;;;;;5032311;28;19932;-88
2023/04/09 04:21:18;;;;;;;;;;;;;;;;;;5046082;28;19929;-87
2023/04/09 04:23:54;;;;;;;;;;;;;;;;;;5031116;28;19929;-86
2023/04/09 04:26:29;;;;;;;;;;;;;;;;;;5030926;28;19933;-88
2023/04/09 04:28:56;;;;;;;;;;;;;;;;;;5023349;28;19944;-87
2023/04/09 04:31:44;;;;;;;;;;;;;;;;;;5031051;28;20374;-88
2023/04/09 04:34:19;;;;;;;;;;;;;;;;;;5037913;28;20008;-88
2023/04/09 04:36:52;;;;;;;;;;;;;;;;;;5029690;28;19932;-87
2023/04/09 04:39:20;;;;;;;;;;;;;;;;;;5031119;28;19936;-88
2023/04/09 04:41:58;;;;;;;;;;;;;;;;;;5046966;28;19925;-87
2023/04/09 04:44:27;;;;;;;;;;;;;;;;;;5028179;28;19931;-87
2023/04/09 04:47:15;;;;;;;;;;;;;;;;;;5030249;28;19925;-88
2023/04/09 04:49:43;;;;;;;;;;;;;;;;;;5033132;28;19934;-87
2023/04/09 04:52:10;;;;;;;;;;;;;;;;;;5041077;28;19960;-87
2023/04/09 04:54:42;;;;;;;;;;;;;;;;;;5025058;28;19934;-87
2023/04/09 04:57:11;;;;;;;;;;;;;;;;;;5040603;28;19925;-88
2023/04/09 04:59:40;;;;;;;;;;;;;;;;;;5030728;28;19929;-88
2023/04/09 05:02:10;;;;;;;;;;;;;;;;;;5028082;28;19925;-86
2023/04/09 05:04:56;;;;;;;;;;;;;;;;;;5030755;28;19948;-86
2023/04/09 05:07:31;;;;;;;;;;;;;;;;;;5029695;28;19925;-88
2023/04/09 05:09:58;;;;;;;;;;;;;;;;;;5023413;28;19929;-86
2023/04/09 05:12:30;;;;;;;;;;;;;;;;;;5029984;28;20298;-87
2023/04/09 05:15:03;;;;;;;;;;;;;;;;;;5045047;28;19940;-87
2023/04/09 05:17:37;;;;;;;;;;;;;;;;;;5029148;28;19948;-88
2023/04/09 05:20:06;;;;;;;;;;;;;;;;;;5031928;28;20390;-86
2023/04/09 05:22:59;;;;;;;;;;;;;;;;;;5035221;28;19940;-86
2023/04/09 05:25:31;;;;;;;;;;;;;;;;;;5031300;28;19925;-86
2023/04/09 05:27:59;;;;;;;;;;;;;;;;;;5028349;28;19925;-86
2023/04/09 05:30:27;;;;;;;;;;;;;;;;;;5030495;28;19925;-86
2023/04/09 05:32:57;;;;;;;;;;;;;;;;;;5036690;28;19929;-88
2023/04/09 05:35:26;;;;;;;;;;;;;;;;;;5030037;28;19925;-87
2023/04/09 05:37:54;;;;;;;;;;;;;;;;;;5047784;28;19926;-87
2023/04/09 05:40:22;;;;;;;;;;;;;;;;;;5029613;28;19925;-86
2023/04/09 05:42:50;;;;;;;;;;;;;;;;;;5036379;28;19932;-87
2023/04/09 05:45:27;;;;;;;;;;;;;;;;;;5028448;28;19925;-87
2023/04/09 05:47:55;;;;;;;;;;;;;;;;;;5030627;28;19936;-87
2023/04/09 05:50:23;;;;;;;;;;;;;;;;;;5030358;28;20474;-87
2023/04/09 05:52:55;;;;;;;;;;;;;;;;;;5029182;28;19926;-87
2023/04/09 05:55:35;;;;;;;;;;;;;;;;;;5026027;28;19932;-88
2023/04/09 05:58:03;;;;;;;;;;;;;;;;;;5031570;28;19929;-87
2023/04/09 06:00:30;;;;;;;;;;;;;;;;;;5027397;28;20405;-86
2023/04/09 06:03:03;;;;;;;;;;;;;;;;;;5029600;28;19936;-87
2023/04/09 06:05:31;;;;;;;;;;;;;;;;;;5027865;28;19929;-87
2023/04/09 06:07:58;;;;;;;;;;;;;;;;;;5030153;28;19925;-87
2023/04/09 06:10:31;;;;;;;;;;;;;;;;;;5028685;28;20381;-87
2023/04/09 06:12:58;;;;;;;;;;;;;;;;;;5032604;28;19932;-87
2023/04/09 06:15:26;;;;;;;;;;;;;;;;;;5029472;28;19925;-86
2023/04/09 06:17:54;;;;;;;;;;;;;;;;;;5029673;28;19929;-86
2023/04/09 06:20:21;;;;;;;;;;;;;;;;;;5029344;28;20561;-86
2023/04/09 06:22:49;;;;;;;;;;;;;;;;;;5028390;28;19929;-85
2023/04/09 06:25:16;;;;;;;;;;;;;;;;;;5029166;28;19932;-87
2023/04/09 06:27:44;;;;;;;;;;;;;;;;;;5031542;28;19929;-85
2023/04/09 06:30:11;;;;;;;;;;;;;;;;;;5030712;28;19940;-86
2023/04/09 06:32:39;;;;;;;;;;;;;;;;;;5040734;28;19929;-86
2023/04/09 06:35:07;;;;;;;;;;;;;;;;;;5027874;28;19932;-88
2023/04/09 06:37:34;;;;;;;;;;;;;;;;;;5024735;28;19930;-86
2023/04/09 06:40:02;;;;;;;;;;;;;;;;;;5026024;28;19925;-86
2023/04/09 06:42:35;;;;;;;;;;;;;;;;;;5026324;28;20397;-86
2023/04/09 06:45:10;;;;;;;;;;;;;;;;;;5042048;28;19940;-87
2023/04/09 06:47:37;;;;;;;;;;;;;;;;;;5026444;28;19926;-86
2023/04/09 06:50:05;;;;;;;;;;;;;;;;;;5028766;28;19925;-85
2023/04/09 06:52:32;;;;;;;;;;;;;;;;;;5027960;28;20373;-86
2023/04/09 06:55:05;;;;;;;;;;;;;;;;;;5028567;28;20397;-85
2023/04/09 06:57:32;;;;;;;;;;;;;;;;;;5030281;28;19933;-87
2023/04/09 07:00:00;;;;;;;;;;;;;;;;;;5027713;28;19933;-88
2023/04/09 07:02:27;;;;;;;;;;;;;;;;;;5023131;28;19951;-86
2023/04/09 07:04:55;;;;;;;;;;;;;;;;;;5023464;28;19951;-87
2023/04/09 07:07:22;;;;;;;;;;;;;;;;;;5025719;28;19925;-87
2023/04/09 07:09:50;;;;;;;;;;;;;;;;;;5027540;28;19940;-86
2023/04/09 07:12:17;;;;;;;;;;;;;;;;;;5026173;28;19925;-87
2023/04/09 07:14:45;;;;;;;;;;;;;;;;;;5026365;28;19936;-87
2023/04/09 07:17:12;;;;;;;;;;;;;;;;;;5026867;28;19925;-86
2023/04/09 07:19:39;;;;;;;;;;;;;;;;;;5026024;28;19937;-88
2023/04/09 07:22:07;;;;;;;;;;;;;;;;;;5028225;28;19925;-86
2023/04/09 07:24:35;;;;;;;;;;;;;;;;;;5026539;28;19940;-87
2023/04/09 07:27:07;;;;;;;;;;;;;;;;;;5023794;28;19925;-88
2023/04/09 07:29:35;;;;;;;;;;;;;;;;;;5024313;28;19936;-87
2023/04/09 07:32:07;;;;;;;;;;;;;;;;;;5040045;28;19926;-88
2023/04/09 07:34:36;;;;;;;;;;;;;;;;;;5028327;28;19936;-86
2023/04/09 07:37:08;;;;;;;;;;;;;;;;;;5043095;28;20535;-86
2023/04/09 07:39:36;;;;;;;;;;;;;;;;;;5027150;28;19944;-86
2023/04/09 07:44:46;;;;;;;;;;;;;;;;;;5130836;23;19926;-80
2023/04/09 07:47:13;;;;;;;;;;;;;;;;;;5000369;28;19926;-80
2023/04/09 07:49:41;;;;;;;;;;;;;;;;;;5012428;28;19926;-80
2023/04/09 07:52:09;;;;;;;;;;;;;;;;;;5017904;28;19936;-82
2023/04/09 07:54:37;;;;;;;;;;;;;;;;;;5017109;28;19926;-80
2023/04/09 07:57:04;;;;;;;;;;;;;;;;;;5015492;28;19926;-82
2023/04/09 07:59:31;;;;;;;;;;;;;;;;;;4995499;28;19926;-81
2023/04/09 08:01:59;;;;;;;;;;;;;;;;;;4991215;28;19926;-82
2023/04/09 08:04:27;;;;;;;;;;;;;;;;;;4996164;28;19933;-83
2023/04/09 08:06:54;;;;;;;;;;;;;;;;;;4994254;28;19932;-82
2023/04/09 08:09:22;;;;;;;;;;;;;;;;;;5016056;28;19932;-82
2023/04/09 08:11:49;;;;;;;;;;;;;;;;;;4994364;28;19926;-81
2023/04/09 08:14:17;;;;;;;;;;;;;;;;;;4998829;28;19926;-81
2023/04/09 08:16:49;;;;;;;;;;;;;;;;;;4998462;28;19937;-81
2023/04/09 08:19:17;;;;;;;;;;;;;;;;;;4994303;28;19926;-81
2023/04/09 08:21:47;;;;;;;;;;;;;;;;;;4994833;28;19937;-81
2023/04/09 08:24:15;;;;;;;;;;;;;;;;;;5013147;28;19949;-82
2023/04/09 08:26:42;;;;;;;;;;;;;;;;;;4994224;28;19929;-81
2023/04/09 08:29:10;;;;;;;;;;;;;;;;;;5012238;28;19940;-81
2023/04/09 08:31:37;;;;;;;;;;;;;;;;;;4992358;28;20294;-81
2023/04/09 08:34:05;;;;;;;;;;;;;;;;;;4997286;28;20732;-81
2023/04/09 08:36:33;;;;;;;;;;;;;;;;;;4995629;28;19926;-81
2023/04/09 08:39:01;;;;;;;;;;;;;;;;;;5009383;28;20294;-78
2023/04/09 08:41:29;;;;;;;;;;;;;;;;;;4990546;28;19926;-79
2023/04/09 08:44:06;;;;;;;;;;;;;;;;;;5011402;28;19925;-84
2023/04/09 08:46:35;;;;;;;;;;;;;;;;;;5003617;28;19926;-81
2023/04/09 08:49:05;;;;;;;;;;;;;;;;;;4973880;28;19933;-83
2023/04/09 08:51:33;;;;;;;;;;;;;;;;;;4985939;28;20885;-82
2023/04/09 08:54:04;;;;;;;;;;;;;;;;;;4970900;28;20476;-80
2023/04/09 08:56:31;;;;;;;;;;;;;;;;;;5001717;28;20565;-81
2023/04/09 08:58:59;;;;;;;;;;;;;;;;;;4979627;28;19933;-81
2023/04/09 09:01:26;;;;;;;;;;;;;;;;;;4969843;28;19933;-81
2023/04/09 09:03:59;;;;;;;;;;;;;;;;;;4979073;28;19937;-80
2023/04/09 09:06:27;;;;;;;;;;;;;;;;;;4971267;28;20834;-80
2023/04/09 09:08:55;;;;;;;;;;;;;;;;;;4994613;28;19953;-80
2023/04/09 09:11:22;;;;;;;;;;;;;;;;;;4990191;28;19933;-81
2023/04/09 09:13:55;;;;;;;;;;;;;;;;;;4993999;28;19949;-82
2023/04/09 09:16:22;;;;;;;;;;;;;;;;;;4975744;28;19933;-81
2023/04/09 09:18:50;;;;;;;;;;;;;;;;;;4974705;28;19944;-81
2023/04/09 09:21:22;;;;;;;;;;;;;;;;;;4995101;28;19948;-81
2023/04/09 09:23:50;;;;;;;;;;;;;;;;;;4972635;28;19934;-80
2023/04/09 09:26:23;;;;;;;;;;;;;;;;;;4971918;28;19934;-79
2023/04/09 09:28:50;;;;;;;;;;;;;;;;;;4984020;28;19933;-80
2023/04/09 09:31:18;;;;;;;;;;;;;;;;;;4971347;28;19945;-80
2023/04/09 09:33:46;;;;;;;;;;;;;;;;;;4984845;28;19934;-80
2023/04/09 09:36:13;;;;;;;;;;;;;;;;;;4984444;28;19933;-80
2023/04/09 09:38:41;;;;;;;;;;;;;;;;;;4973732;28;20536;-80
2023/04/09 09:41:08;;;;;;;;;;;;;;;;;;4971041;28;19941;-80
2023/04/09 09:43:36;;;;;;;;;;;;;;;;;;4983125;28;19937;-80
2023/04/09 09:46:08;;;;;;;;;;;;;;;;;;4970983;28;19934;-80
2023/04/09 09:48:41;;;;;;;;;;;;;;;;;;4969478;28;19941;-79
2023/04/09 09:51:13;;;;;;;;;;;;;;;;;;4973899;28;19934;-80
2023/04/09 09:53:41;;;;;;;;;;;;;;;;;;4991985;28;19933;-79
2023/04/09 09:56:13;;;;;;;;;;;;;;;;;;4973900;28;19945;-80
2023/04/09 09:58:41;;;;;;;;;;;;;;;;;;4987084;28;20603;-81
2023/04/09 10:01:09;;;;;;;;;;;;;;;;;;4982562;28;19941;-81
2023/04/09 10:03:37;;;;;;;;;;;;;;;;;;5000242;28;19930;-81
2023/04/09 10:06:04;;;;;;;;;;;;;;;;;;4981696;28;19926;-81
2023/04/09 10:08:33;;;;;;;;;;;;;;;;;;4992229;28;19926;-81
2023/04/09 10:11:00;;;;;;;;;;;;;;;;;;4992089;28;19940;-81
2023/04/09 10:13:33;;;;;;;;;;;;;;;;;;4990419;28;19926;-80
2023/04/09 10:16:00;;;;;;;;;;;;;;;;;;5005236;28;19934;-82
2023/04/09 10:18:28;;;;;;;;;;;;;;;;;;4988427;28;20425;-82
2023/04/09 10:20:56;;;;;;;;;;;;;;;;;;5006680;28;19936;-81
2023/04/09 10:23:28;;;;;;;;;;;;;;;;;;4986481;28;19926;-80
2023/04/09 10:26:01;;;;;;;;;;;;;;;;;;4992417;28;19937;-80
2023/04/09 10:28:29;;;;;;;;;;;;;;;;;;4990040;28;19934;-80
2023/04/09 10:31:02;;;;;;;;;;;;;;;;;;4990254;28;19941;-81
2023/04/09 10:33:30;;;;;;;;;;;;;;;;;;5004112;28;19926;-81
2023/04/09 10:35:58;;;;;;;;;;;;;;;;;;4990113;28;19930;-80
2023/04/09 10:38:30;;;;;;;;;;;;;;;;;;4991895;28;20295;-80
2023/04/09 10:41:03;;;;;;;;;;;;;;;;;;4992044;28;20500;-81
2023/04/09 10:43:36;;;;;;;;;;;;;;;;;;5000586;28;20291;-80
2023/04/09 10:46:08;;;;;;;;;;;;;;;;;;4981357;28;19934;-81
2023/04/09 10:48:36;;;;;;;;;;;;;;;;;;4992067;28;19945;-80
2023/04/09 10:51:05;;;;;;;;;;;;;;;;;;4992181;28;19953;-80
2023/04/09 10:53:33;;;;;;;;;;;;;;;;;;4990723;28;19949;-81
2023/04/09 10:56:01;;;;;;;;;;;;;;;;;;5005686;28;19929;-80
2023/04/09 10:58:29;;;;;;;;;;;;;;;;;;4997415;28;19933;-80
2023/04/09 11:00:56;;;;;;;;;;;;;;;;;;5004350;28;19929;-81
2023/04/09 11:03:24;;;;;;;;;;;;;;;;;;5006492;28;19940;-81
2023/04/09 11:05:51;;;;;;;;;;;;;;;;;;4992112;28;19945;-81
2023/04/09 11:08:24;;;;;;;;;;;;;;;;;;4990332;28;19933;-81
2023/04/09 11:10:59;;;;;;;;;;;;;;;;;;4988574;28;19937;-82
2023/04/09 11:13:27;;;;;;;;;;;;;;;;;;4988286;28;20378;-81
2023/04/09 11:15:54;;;;;;;;;;;;;;;;;;4989923;28;19947;-81
2023/04/09 11:18:22;;;;;;;;;;;;;;;;;;5002596;28;19941;-81
2023/04/09 11:20:54;;;;;;;;;;;;;;;;;;4991093;28;19926;-82
2023/04/09 11:23:22;;;;;;;;;;;;;;;;;;4990624;28;19952;-82
2023/04/09 11:25:49;;;;;;;;;;;;;;;;;;4991130;28;20040;-81
2023/04/09 11:28:22;;;;;;;;;;;;;;;;;;4982068;28;19930;-82
2023/04/09 11:30:54;;;;;;;;;;;;;;;;;;5000436;28;20299;-82
2023/04/09 11:33:27;;;;;;;;;;;;;;;;;;4989937;28;20286;-81
2023/04/09 11:35:54;;;;;;;;;;;;;;;;;;4991483;28;20270;-82
2023/04/09 11:38:22;;;;;;;;;;;;;;;;;;4988833;28;19929;-81
2023/04/09 11:40:54;;;;;;;;;;;;;;;;;;5000689;28;20294;-82
2023/04/09 11:43:22;;;;;;;;;;;;;;;;;;4990144;28;20382;-81
2023/04/09 11:45:49;;;;;;;;;;;;;;;;;;4983527;28;19933;-82
2023/04/09 11:48:23;;;;;;;;;;;;;;;;;;4981231;28;19929;-82
2023/04/09 11:50:51;;;;;;;;;;;;;;;;;;5001194;28;19944;-83
2023/04/09 11:53:24;;;;;;;;;;;;;;;;;;4958318;28;19933;-84
2023/04/09 11:55:51;;;;;;;;;;;;;;;;;;4985759;28;19941;-82
2023/04/09 11:58:19;;;;;;;;;;;;;;;;;;4980324;28;19933;-83
2023/04/09 12:00:52;;;;;;;;;;;;;;;;;;4976615;28;20025;-82
2023/04/09 12:03:20;;;;;;;;;;;;;;;;;;4990560;28;19933;-82
2023/04/09 12:05:48;;;;;;;;;;;;;;;;;;4962535;28;19944;-81
2023/04/09 12:08:17;;;;;;;;;;;;;;;;;;4985503;28;19926;-82
2023/04/09 12:10:50;;;;;;;;;;;;;;;;;;4963328;28;19926;-83
2023/04/09 12:13:17;;;;;;;;;;;;;;;;;;4965771;28;19933;-81
2023/04/09 12:15:45;;;;;;;;;;;;;;;;;;4978071;28;20470;-82
2023/04/09 12:18:12;;;;;;;;;;;;;;;;;;4969829;28;19944;-80
2023/04/09 12:20:41;;;;;;;;;;;;;;;;;;4972611;28;20602;-81
2023/04/09 12:23:13;;;;;;;;;;;;;;;;;;4970858;28;19934;-81
2023/04/09 12:25:41;;;;;;;;;;;;;;;;;;4978122;28;19934;-81
2023/04/09 12:28:14;;;;;;;;;;;;;;;;;;4989066;28;19941;-83
2023/04/09 12:30:42;;;;;;;;;;;;;;;;;;4980080;28;20389;-81
2023/04/09 12:33:14;;;;;;;;;;;;;;;;;;4969526;28;19944;-83
2023/04/09 12:35:42;;;;;;;;;;;;;;;;;;4986167;28;21264;-78
2023/04/09 12:38:09;;;;;;;;;;;;;;;;;;4968549;28;19964;-80
2023/04/09 12:40:37;;;;;;;;;;;;;;;;;;4971307;28;19934;-80
2023/04/09 12:43:04;;;;;;;;;;;;;;;;;;4992627;28;19941;-80
2023/04/09 12:45:32;;;;;;;;;;;;;;;;;;4987908;28;19933;-79
2023/04/09 12:48:04;;;;;;;;;;;;;;;;;;4986362;28;20457;-80
2023/04/09 12:50:37;;;;;;;;;;;;;;;;;;4968949;28;19934;-80
2023/04/09 12:53:05;;;;;;;;;;;;;;;;;;4980875;28;19934;-79
2023/04/09 12:55:32;;;;;;;;;;;;;;;;;;4981495;28;20575;-80
2023/04/09 12:58:01;;;;;;;;;;;;;;;;;;4985818;28;19933;-80
2023/04/09 13:00:29;;;;;;;;;;;;;;;;;;4974887;28;19934;-84
2023/04/09 13:02:57;;;;;;;;;;;;;;;;;;4972212;28;19934;-80
2023/04/09 13:05:25;;;;;;;;;;;;;;;;;;4972739;28;20386;-81
2023/04/09 13:07:52;;;;;;;;;;;;;;;;;;4975824;28;19941;-83
2023/04/09 13:10:25;;;;;;;;;;;;;;;;;;4988359;28;20378;-81
2023/04/09 13:12:52;;;;;;;;;;;;;;;;;;4976752;28;20590;-79
2023/04/09 13:15:26;;;;;;;;;;;;;;;;;;4975251;28;20836;-80
2023/04/09 13:17:53;;;;;;;;;;;;;;;;;;4994664;28;20462;-79
2023/04/09 13:20:21;;;;;;;;;;;;;;;;;;4974330;28;19940;-80
2023/04/09 13:22:49;;;;;;;;;;;;;;;;;;4988089;28;20322;-80
2023/04/09 13:25:17;;;;;;;;;;;;;;;;;;4988330;28;19934;-80
2023/04/09 13:27:44;;;;;;;;;;;;;;;;;;4991873;28;20457;-81
2023/04/09 13:30:12;;;;;;;;;;;;;;;;;;4993824;28;19934;-81
2023/04/09 13:32:44;;;;;;;;;;;;;;;;;;4977509;28;19934;-81
2023/04/09 13:35:17;;;;;;;;;;;;;;;;;;4972411;28;20267;-79
2023/04/09 13:37:50;;;;;;;;;;;;;;;;;;4973864;28;20394;-79
2023/04/09 13:40:22;;;;;;;;;;;;;;;;;;4973082;28;20618;-79
2023/04/09 13:42:50;;;;;;;;;;;;;;;;;;4966099;28;19934;-80
2023/04/09 13:45:23;;;;;;;;;;;;;;;;;;4974995;28;19934;-81
2023/04/09 13:47:51;;;;;;;;;;;;;;;;;;4982433;28;19930;-81
2023/04/09 13:50:18;;;;;;;;;;;;;;;;;;4998224;28;20747;-81
2023/04/09 13:52:46;;;;;;;;;;;;;;;;;;4989350;28;19941;-82
2023/04/09 13:55:18;;;;;;;;;;;;;;;;;;4950450;28;20548;-81
2023/04/09 13:57:46;;;;;;;;;;;;;;;;;;4993848;28;19926;-81
2023/04/09 14:00:16;;;;;;;;;;;;;;;;;;4990306;28;21426;-81
2023/04/09 14:02:43;;;;;;;;;;;;;;;;;;4990287;28;20554;-80
2023/04/09 14:05:11;;;;;;;;;;;;;;;;;;4992088;28;19926;-80
2023/04/09 14:07:43;;;;;;;;;;;;;;;;;;4991809;28;20437;-81
2023/04/09 14:10:16;;;;;;;;;;;;;;;;;;4992103;28;20378;-81
2023/04/09 14:12:49;;;;;;;;;;;;;;;;;;4984089;28;20306;-82
2023/04/09 14:15:17;;;;;;;;;;;;;;;;;;4991536;28;19936;-81
2023/04/09 14:17:44;;;;;;;;;;;;;;;;;;4992140;28;19925;-81
2023/04/09 14:20:11;;;;;;;;;;;;;;;;;;4990314;28;19926;-80
2023/04/09 14:22:47;;;;;;;;;;;;;;;;;;4991573;28;20914;-81
2023/04/09 14:25:15;;;;;;;;;;;;;;;;;;5006805;28;19933;-79
2023/04/09 14:27:47;;;;;;;;;;;;;;;;;;5007300;28;19929;-79
2023/04/09 14:30:15;;;;;;;;;;;;;;;;;;4992113;28;19934;-79
2023/04/09 14:32:43;;;;;;;;;;;;;;;;;;4990739;28;19934;-79
2023/04/09 14:35:11;;;;;;;;;;;;;;;;;;4989594;28;19977;-80
2023/04/09 14:37:39;;;;;;;;;;;;;;;;;;4991451;28;20889;-80
2023/04/09 14:40:07;;;;;;;;;;;;;;;;;;4960331;28;19934;-78
2023/04/09 14:42:35;;;;;;;;;;;;;;;;;;4989246;28;20010;-79
2023/04/09 14:45:02;;;;;;;;;;;;;;;;;;4986061;28;19934;-78
2023/04/09 14:47:30;;;;;;;;;;;;;;;;;;4993318;28;19926;-79
2023/04/09 14:49:58;;;;;;;;;;;;;;;;;;4981716;28;19941;-79
2023/04/09 14:52:27;;;;;;;;;;;;;;;;;;4969039;28;19940;-79
2023/04/09 14:54:55;;;;;;;;;;;;;;;;;;4969661;28;20515;-79
2023/04/09 14:57:22;;;;;;;;;;;;;;;;;;4966886;28;19941;-79
2023/04/09 14:59:55;;;;;;;;;;;;;;;;;;4981316;28;19938;-79
2023/04/09 15:02:22;;;;;;;;;;;;;;;;;;4980354;28;19933;-79
2023/04/09 15:04:50;;;;;;;;;;;;;;;;;;4986309;28;19934;-79
2023/04/09 15:07:22;;;;;;;;;;;;;;;;;;4980757;28;19934;-79
2023/04/09 15:09:55;;;;;;;;;;;;;;;;;;4989692;28;19930;-79
2023/04/09 15:12:23;;;;;;;;;;;;;;;;;;4985339;28;19934;-78
2023/04/09 15:14:55;;;;;;;;;;;;;;;;;;4990979;28;19933;-79
2023/04/09 15:17:23;;;;;;;;;;;;;;;;;;4973901;28;19934;-79
2023/04/09 15:19:51;;;;;;;;;;;;;;;;;;4971045;28;20711;-79
2023/04/09 15:22:18;;;;;;;;;;;;;;;;;;4978287;28;19940;-79
2023/04/09 15:24:46;;;;;;;;;;;;;;;;;;4985377;28;20745;-79
2023/04/09 15:27:14;;;;;;;;;;;;;;;;;;4974617;28;20391;-79
2023/04/09 15:29:42;;;;;;;;;;;;;;;;;;4981405;28;20771;-78
2023/04/09 15:32:14;;;;;;;;;;;;;;;;;;4965833;28;19933;-79
2023/04/09 15:34:42;;;;;;;;;;;;;;;;;;4974520;28;20390;-79
2023/04/09 15:37:09;;;;;;;;;;;;;;;;;;4967224;28;19934;-78
2023/04/09 15:39:37;;;;;;;;;;;;;;;;;;4982649;28;19934;-78
2023/04/09 15:42:05;;;;;;;;;;;;;;;;;;4961264;28;20574;-79
2023/04/09 15:44:37;;;;;;;;;;;;;;;;;;4964506;28;20398;-79
2023/04/09 15:47:05;;;;;;;;;;;;;;;;;;4984154;28;19945;-79
2023/04/09 15:49:37;;;;;;;;;;;;;;;;;;4971509;28;19933;-79
2023/04/09 15:52:05;;;;;;;;;;;;;;;;;;4974081;28;19933;-79
2023/04/09 15:54:33;;;;;;;;;;;;;;;;;;4969305;28;19933;-79
2023/04/09 15:57:00;;;;;;;;;;;;;;;;;;4969501;28;19934;-79
2023/04/09 15:59:28;;;;;;;;;;;;;;;;;;4987618;28;19934;-78
2023/04/09 16:01:55;;;;;;;;;;;;;;;;;;4976655;28;19940;-79
2023/04/09 16:04:23;;;;;;;;;;;;;;;;;;4975684;28;19933;-78
2023/04/09 16:06:50;;;;;;;;;;;;;;;;;;4978003;28;19930;-78
2023/04/09 16:09:18;;;;;;;;;;;;;;;;;;4979075;28;19929;-79
2023/04/09 16:11:46;;;;;;;;;;;;;;;;;;4990212;28;19929;-78
2023/04/09 16:14:14;;;;;;;;;;;;;;;;;;4992222;28;19934;-80
2023/04/09 16:16:45;;;;;;;;;;;;;;;;;;4977798;28;19933;-79
2023/04/09 16:19:13;;;;;;;;;;;;;;;;;;4974117;28;19957;-79
2023/04/09 16:21:45;;;;;;;;;;;;;;;;;;4971399;28;20711;-79
2023/04/09 16:24:18;;;;;;;;;;;;;;;;;;4982573;28;19933;-79
2023/04/09 16:26:46;;;;;;;;;;;;;;;;;;4979594;28;20035;-80
2023/04/09 16:29:18;;;;;;;;;;;;;;;;;;4972803;28;19934;-80
2023/04/09 16:31:46;;;;;;;;;;;;;;;;;;4974667;28;19976;-79
2023/04/09 16:34:18;;;;;;;;;;;;;;;;;;4995476;28;19944;-81
2023/04/09 16:36:46;;;;;;;;;;;;;;;;;;4971990;28;19941;-79
2023/04/09 16:39:18;;;;;;;;;;;;;;;;;;4972518;28;19937;-79
2023/04/09 16:41:46;;;;;;;;;;;;;;;;;;4954049;28;19933;-81
2023/04/09 16:44:18;;;;;;;;;;;;;;;;;;4973468;28;20409;-78
2023/04/09 16:46:46;;;;;;;;;;;;;;;;;;4983188;28;19934;-80
2023/04/09 16:49:18;;;;;;;;;;;;;;;;;;4978732;28;20487;-80
2023/04/09 16:51:46;;;;;;;;;;;;;;;;;;4977019;28;19941;-81
2023/04/09 16:54:18;;;;;;;;;;;;;;;;;;4988159;28;20458;-81
2023/04/09 16:56:47;;;;;;;;;;;;;;;;;;4988026;28;19933;-82
2023/04/09 16:59:16;;;;;;;;;;;;;;;;;;4989348;28;19957;-78
2023/04/09 17:01:50;;;;;;;;;;;;;;;;;;4970952;28;19934;-79
2023/04/09 17:04:17;;;;;;;;;;;;;;;;;;4974894;28;19934;-80